sensor_id;sensor_type;location;lat;lon;timestamp;P1;durP1;ratioP1;P2;durP2;ratioP2
24891;SDS011;12954;50.688;10.908;2023-01-23T00:01:52;3.60;;;3.05;;
24891;SDS011;12954;50.688;10.908;2023-01-23T00:04:20;4.20;;;3.70;;
24891;SDS011;12954;50.688;10.908;2023-01-23T00:06:49;4.15;;;3.58;;
24891;SDS011;12954;50.688;10.908;2023-01-23T00:09:19;4.15;;;3.40;;
24891;SDS011;12954;50.688;10.908;2023-01-23T00:11:47;3.70;;;3.30;;
24891;SDS011;12954;50.688;10.908;2023-01-23T00:14:15;3.10;;;2.80;;
24891;SDS011;12954;50.688;10.908;2023-01-23T00:16:44;4.32;;;3.35;;
24891;SDS011;12954;50.688;10.908;2023-01-23T00:19:12;4.10;;;3.50;;
24891;SDS011;12954;50.688;10.908;2023-01-23T00:21:41;4.93;;;4.43;;
24891;SDS011;12954;50.688;10.908;2023-01-23T00:24:09;6.57;;;4.70;;
24891;SDS011;12954;50.688;10.908;2023-01-23T00:26:40;5.80;;;4.20;;
24891;SDS011;12954;50.688;10.908;2023-01-23T00:29:09;5.03;;;3.88;;
24891;SDS011;12954;50.688;10.908;2023-01-23T00:31:41;4.30;;;3.45;;
24891;SDS011;12954;50.688;10.908;2023-01-23T00:34:11;4.40;;;3.55;;
24891;SDS011;12954;50.688;10.908;2023-01-23T00:36:40;4.25;;;3.85;;
24891;SDS011;12954;50.688;10.908;2023-01-23T00:39:11;4.85;;;3.72;;
24891;SDS011;12954;50.688;10.908;2023-01-23T00:41:44;5.07;;;4.30;;
24891;SDS011;12954;50.688;10.908;2023-01-23T00:44:14;4.80;;;3.80;;
24891;SDS011;12954;50.688;10.908;2023-01-23T00:46:43;5.13;;;4.18;;
24891;SDS011;12954;50.688;10.908;2023-01-23T00:49:11;5.55;;;4.72;;
24891;SDS011;12954;50.688;10.908;2023-01-23T00:51:43;5.60;;;4.70;;
24891;SDS011;12954;50.688;10.908;2023-01-23T00:54:11;4.57;;;4.07;;
24891;SDS011;12954;50.688;10.908;2023-01-23T00:56:40;5.55;;;4.75;;
24891;SDS011;12954;50.688;10.908;2023-01-23T00:59:10;7.43;;;4.63;;
24891;SDS011;12954;50.688;10.908;2023-01-23T01:01:38;14.85;;;5.28;;
24891;SDS011;12954;50.688;10.908;2023-01-23T01:04:07;13.57;;;7.80;;
24891;SDS011;12954;50.688;10.908;2023-01-23T01:06:35;13.27;;;8.93;;
24891;SDS011;12954;50.688;10.908;2023-01-23T01:09:04;32.08;;;6.05;;
24891;SDS011;12954;50.688;10.908;2023-01-23T01:11:32;6.22;;;5.40;;
24891;SDS011;12954;50.688;10.908;2023-01-23T01:14:00;5.15;;;4.57;;
24891;SDS011;12954;50.688;10.908;2023-01-23T01:16:30;9.77;;;5.03;;
24891;SDS011;12954;50.688;10.908;2023-01-23T01:18:59;5.78;;;4.90;;
24891;SDS011;12954;50.688;10.908;2023-01-23T01:21:27;7.22;;;4.95;;
24891;SDS011;12954;50.688;10.908;2023-01-23T01:23:55;6.93;;;5.18;;
24891;SDS011;12954;50.688;10.908;2023-01-23T01:26:24;9.70;;;5.47;;
24891;SDS011;12954;50.688;10.908;2023-01-23T01:28:52;11.65;;;5.93;;
24891;SDS011;12954;50.688;10.908;2023-01-23T01:31:20;25.42;;;5.68;;
24891;SDS011;12954;50.688;10.908;2023-01-23T01:33:50;9.75;;;5.15;;
24891;SDS011;12954;50.688;10.908;2023-01-23T01:36:20;5.63;;;4.65;;
24891;SDS011;12954;50.688;10.908;2023-01-23T01:38:50;11.13;;;5.35;;
24891;SDS011;12954;50.688;10.908;2023-01-23T01:41:19;15.65;;;5.63;;
24891;SDS011;12954;50.688;10.908;2023-01-23T01:43:47;33.67;;;6.85;;
24891;SDS011;12954;50.688;10.908;2023-01-23T01:46:17;7.97;;;5.78;;
24891;SDS011;12954;50.688;10.908;2023-01-23T01:48:55;11.10;;;5.85;;
24891;SDS011;12954;50.688;10.908;2023-01-23T01:51:32;16.67;;;5.90;;
24891;SDS011;12954;50.688;10.908;2023-01-23T01:54:05;58.42;;;8.45;;
24891;SDS011;12954;50.688;10.908;2023-01-23T01:56:38;46.58;;;7.72;;
24891;SDS011;12954;50.688;10.908;2023-01-23T01:59:11;25.50;;;7.10;;
24891;SDS011;12954;50.688;10.908;2023-01-23T02:01:40;9.27;;;6.07;;
24891;SDS011;12954;50.688;10.908;2023-01-23T02:04:14;68.57;;;7.47;;
24891;SDS011;12954;50.688;10.908;2023-01-23T02:06:43;8.20;;;6.57;;
24891;SDS011;12954;50.688;10.908;2023-01-23T02:09:13;15.25;;;7.32;;
24891;SDS011;12954;50.688;10.908;2023-01-23T02:14:14;197.55;;;11.43;;
24891;SDS011;12954;50.688;10.908;2023-01-23T02:16:43;60.53;;;8.57;;
24891;SDS011;12954;50.688;10.908;2023-01-23T02:19:22;47.20;;;8.18;;
24891;SDS011;12954;50.688;10.908;2023-01-23T02:22:01;80.03;;;8.85;;
24891;SDS011;12954;50.688;10.908;2023-01-23T02:24:34;133.07;;;10.82;;
24891;SDS011;12954;50.688;10.908;2023-01-23T02:27:09;165.68;;;11.32;;
24891;SDS011;12954;50.688;10.908;2023-01-23T02:29:38;304.45;;;15.10;;
24891;SDS011;12954;50.688;10.908;2023-01-23T02:32:08;264.00;;;15.40;;
24891;SDS011;12954;50.688;10.908;2023-01-23T02:34:36;375.35;;;19.42;;
24891;SDS011;12954;50.688;10.908;2023-01-23T02:37:05;257.85;;;15.60;;
24891;SDS011;12954;50.688;10.908;2023-01-23T02:39:35;428.65;;;21.83;;
24891;SDS011;12954;50.688;10.908;2023-01-23T02:42:05;280.23;;;16.80;;
24891;SDS011;12954;50.688;10.908;2023-01-23T02:44:34;467.23;;;21.75;;
24891;SDS011;12954;50.688;10.908;2023-01-23T02:47:04;398.08;;;20.95;;
24891;SDS011;12954;50.688;10.908;2023-01-23T02:49:37;290.15;;;16.85;;
24891;SDS011;12954;50.688;10.908;2023-01-23T02:52:06;343.95;;;17.33;;
24891;SDS011;12954;50.688;10.908;2023-01-23T02:54:35;154.32;;;12.30;;
24891;SDS011;12954;50.688;10.908;2023-01-23T02:57:04;434.00;;;19.88;;
24891;SDS011;12954;50.688;10.908;2023-01-23T02:59:34;166.68;;;12.68;;
24891;SDS011;12954;50.688;10.908;2023-01-23T03:02:20;115.10;;;12.43;;
24891;SDS011;12954;50.688;10.908;2023-01-23T03:04:48;89.70;;;10.32;;
24891;SDS011;12954;50.688;10.908;2023-01-23T03:07:17;186.52;;;14.15;;
24891;SDS011;12954;50.688;10.908;2023-01-23T03:09:45;373.90;;;20.35;;
24891;SDS011;12954;50.688;10.908;2023-01-23T03:12:15;248.68;;;14.48;;
24891;SDS011;12954;50.688;10.908;2023-01-23T03:14:45;85.43;;;10.65;;
24891;SDS011;12954;50.688;10.908;2023-01-23T03:17:14;94.97;;;11.73;;
24891;SDS011;12954;50.688;10.908;2023-01-23T03:19:42;145.32;;;11.60;;
24891;SDS011;12954;50.688;10.908;2023-01-23T03:22:11;61.47;;;10.32;;
24891;SDS011;12954;50.688;10.908;2023-01-23T03:24:40;111.45;;;11.45;;
24891;SDS011;12954;50.688;10.908;2023-01-23T03:27:08;149.70;;;11.48;;
24891;SDS011;12954;50.688;10.908;2023-01-23T03:29:37;70.82;;;10.48;;
24891;SDS011;12954;50.688;10.908;2023-01-23T03:32:20;89.38;;;9.63;;
24891;SDS011;12954;50.688;10.908;2023-01-23T03:34:51;129.57;;;10.85;;
24891;SDS011;12954;50.688;10.908;2023-01-23T03:37:19;218.75;;;14.77;;
24891;SDS011;12954;50.688;10.908;2023-01-23T03:39:48;64.55;;;10.63;;
24891;SDS011;12954;50.688;10.908;2023-01-23T03:42:33;79.53;;;10.48;;
24891;SDS011;12954;50.688;10.908;2023-01-23T03:45:02;38.83;;;9.75;;
24891;SDS011;12954;50.688;10.908;2023-01-23T03:47:33;45.78;;;9.25;;
24891;SDS011;12954;50.688;10.908;2023-01-23T03:50:01;149.68;;;11.00;;
24891;SDS011;12954;50.688;10.908;2023-01-23T03:52:30;34.20;;;9.00;;
24891;SDS011;12954;50.688;10.908;2023-01-23T03:54:58;95.55;;;10.73;;
24891;SDS011;12954;50.688;10.908;2023-01-23T03:57:27;78.38;;;9.63;;
24891;SDS011;12954;50.688;10.908;2023-01-23T03:59:55;40.58;;;9.55;;
24891;SDS011;12954;50.688;10.908;2023-01-23T04:02:24;34.15;;;9.73;;
24891;SDS011;12954;50.688;10.908;2023-01-23T04:04:54;58.75;;;10.10;;
24891;SDS011;12954;50.688;10.908;2023-01-23T04:07:23;41.17;;;10.63;;
24891;SDS011;12954;50.688;10.908;2023-01-23T04:09:51;45.92;;;13.35;;
24891;SDS011;12954;50.688;10.908;2023-01-23T04:12:19;80.68;;;11.05;;
24891;SDS011;12954;50.688;10.908;2023-01-23T04:14:48;47.92;;;11.10;;
24891;SDS011;12954;50.688;10.908;2023-01-23T04:17:16;110.53;;;10.80;;
24891;SDS011;12954;50.688;10.908;2023-01-23T04:19:44;86.00;;;10.80;;
24891;SDS011;12954;50.688;10.908;2023-01-23T04:22:14;43.95;;;9.93;;
24891;SDS011;12954;50.688;10.908;2023-01-23T04:24:42;66.80;;;10.55;;
24891;SDS011;12954;50.688;10.908;2023-01-23T04:27:11;208.20;;;15.68;;
24891;SDS011;12954;50.688;10.908;2023-01-23T04:29:39;86.53;;;12.00;;
24891;SDS011;12954;50.688;10.908;2023-01-23T04:32:07;80.50;;;11.38;;
24891;SDS011;12954;50.688;10.908;2023-01-23T04:34:36;95.15;;;11.38;;
24891;SDS011;12954;50.688;10.908;2023-01-23T04:37:04;35.92;;;10.65;;
24891;SDS011;12954;50.688;10.908;2023-01-23T04:39:34;56.72;;;11.48;;
24891;SDS011;12954;50.688;10.908;2023-01-23T04:42:02;35.95;;;10.98;;
24891;SDS011;12954;50.688;10.908;2023-01-23T04:44:31;76.07;;;11.75;;
24891;SDS011;12954;50.688;10.908;2023-01-23T04:46:59;89.90;;;14.43;;
24891;SDS011;12954;50.688;10.908;2023-01-23T04:49:28;86.93;;;12.30;;
24891;SDS011;12954;50.688;10.908;2023-01-23T04:51:56;32.63;;;11.05;;
24891;SDS011;12954;50.688;10.908;2023-01-23T04:54:24;40.55;;;10.98;;
24891;SDS011;12954;50.688;10.908;2023-01-23T04:56:54;64.93;;;13.43;;
24891;SDS011;12954;50.688;10.908;2023-01-23T04:59:23;60.55;;;12.75;;
24891;SDS011;12954;50.688;10.908;2023-01-23T05:01:51;82.35;;;12.32;;
24891;SDS011;12954;50.688;10.908;2023-01-23T05:04:20;43.90;;;11.77;;
24891;SDS011;12954;50.688;10.908;2023-01-23T05:06:48;86.82;;;12.35;;
24891;SDS011;12954;50.688;10.908;2023-01-23T05:09:16;48.45;;;11.70;;
24891;SDS011;12954;50.688;10.908;2023-01-23T05:11:45;90.32;;;14.05;;
24891;SDS011;12954;50.688;10.908;2023-01-23T05:14:14;140.63;;;13.75;;
24891;SDS011;12954;50.688;10.908;2023-01-23T05:16:43;141.82;;;14.10;;
24891;SDS011;12954;50.688;10.908;2023-01-23T05:19:11;165.93;;;15.40;;
24891;SDS011;12954;50.688;10.908;2023-01-23T05:21:40;194.57;;;15.35;;
24891;SDS011;12954;50.688;10.908;2023-01-23T05:24:08;145.88;;;13.10;;
24891;SDS011;12954;50.688;10.908;2023-01-23T05:26:37;222.88;;;14.77;;
24891;SDS011;12954;50.688;10.908;2023-01-23T05:29:05;159.82;;;14.55;;
24891;SDS011;12954;50.688;10.908;2023-01-23T05:31:35;125.47;;;13.10;;
24891;SDS011;12954;50.688;10.908;2023-01-23T05:34:03;95.25;;;12.10;;
24891;SDS011;12954;50.688;10.908;2023-01-23T05:36:32;64.05;;;11.65;;
24891;SDS011;12954;50.688;10.908;2023-01-23T05:39:00;229.77;;;15.10;;
24891;SDS011;12954;50.688;10.908;2023-01-23T05:41:28;115.72;;;15.07;;
24891;SDS011;12954;50.688;10.908;2023-01-23T05:43:57;136.07;;;14.18;;
24891;SDS011;12954;50.688;10.908;2023-01-23T05:46:25;70.50;;;13.68;;
24891;SDS011;12954;50.688;10.908;2023-01-23T05:48:55;78.28;;;12.02;;
24891;SDS011;12954;50.688;10.908;2023-01-23T05:51:23;119.43;;;13.35;;
24891;SDS011;12954;50.688;10.908;2023-01-23T05:53:57;78.53;;;12.07;;
24891;SDS011;12954;50.688;10.908;2023-01-23T05:56:25;178.90;;;13.55;;
24891;SDS011;12954;50.688;10.908;2023-01-23T05:58:54;67.50;;;12.27;;
24891;SDS011;12954;50.688;10.908;2023-01-23T06:01:23;70.40;;;11.50;;
24891;SDS011;12954;50.688;10.908;2023-01-23T06:03:51;93.38;;;12.40;;
24891;SDS011;12954;50.688;10.908;2023-01-23T06:06:22;101.10;;;14.23;;
24891;SDS011;12954;50.688;10.908;2023-01-23T06:08:50;95.32;;;13.65;;
24891;SDS011;12954;50.688;10.908;2023-01-23T06:11:18;229.40;;;16.95;;
24891;SDS011;12954;50.688;10.908;2023-01-23T06:13:47;154.00;;;14.90;;
24891;SDS011;12954;50.688;10.908;2023-01-23T06:16:15;237.95;;;18.20;;
24891;SDS011;12954;50.688;10.908;2023-01-23T06:18:44;264.77;;;18.55;;
24891;SDS011;12954;50.688;10.908;2023-01-23T06:21:12;316.35;;;20.52;;
24891;SDS011;12954;50.688;10.908;2023-01-23T06:23:45;242.75;;;19.35;;
24891;SDS011;12954;50.688;10.908;2023-01-23T06:26:13;363.05;;;21.05;;
24891;SDS011;12954;50.688;10.908;2023-01-23T06:28:42;385.33;;;22.92;;
24891;SDS011;12954;50.688;10.908;2023-01-23T06:31:10;374.15;;;23.42;;
24891;SDS011;12954;50.688;10.908;2023-01-23T06:33:39;351.70;;;22.65;;
24891;SDS011;12954;50.688;10.908;2023-01-23T06:36:07;281.38;;;19.75;;
24891;SDS011;12954;50.688;10.908;2023-01-23T06:38:37;355.10;;;22.33;;
24891;SDS011;12954;50.688;10.908;2023-01-23T06:41:06;290.30;;;20.15;;
24891;SDS011;12954;50.688;10.908;2023-01-23T06:43:35;315.02;;;20.33;;
24891;SDS011;12954;50.688;10.908;2023-01-23T06:46:03;251.73;;;18.02;;
24891;SDS011;12954;50.688;10.908;2023-01-23T06:48:35;193.52;;;15.90;;
24891;SDS011;12954;50.688;10.908;2023-01-23T06:51:04;235.88;;;17.02;;
24891;SDS011;12954;50.688;10.908;2023-01-23T06:53:33;319.80;;;19.17;;
24891;SDS011;12954;50.688;10.908;2023-01-23T06:56:01;447.77;;;22.25;;
24891;SDS011;12954;50.688;10.908;2023-01-23T06:58:32;412.73;;;24.30;;
24891;SDS011;12954;50.688;10.908;2023-01-23T07:01:07;390.58;;;21.92;;
24891;SDS011;12954;50.688;10.908;2023-01-23T07:03:37;533.70;;;24.80;;
24891;SDS011;12954;50.688;10.908;2023-01-23T07:06:06;545.53;;;29.15;;
24891;SDS011;12954;50.688;10.908;2023-01-23T07:08:35;444.23;;;25.10;;
24891;SDS011;12954;50.688;10.908;2023-01-23T07:11:03;378.58;;;21.77;;
24891;SDS011;12954;50.688;10.908;2023-01-23T07:13:34;479.33;;;24.52;;
24891;SDS011;12954;50.688;10.908;2023-01-23T07:16:02;311.27;;;18.77;;
24891;SDS011;12954;50.688;10.908;2023-01-23T07:18:31;400.67;;;21.80;;
24891;SDS011;12954;50.688;10.908;2023-01-23T07:21:02;548.72;;;26.42;;
24891;SDS011;12954;50.688;10.908;2023-01-23T07:23:32;588.78;;;25.63;;
24891;SDS011;12954;50.688;10.908;2023-01-23T07:26:03;465.88;;;23.50;;
24891;SDS011;12954;50.688;10.908;2023-01-23T07:28:36;573.38;;;30.27;;
24891;SDS011;12954;50.688;10.908;2023-01-23T07:31:05;424.10;;;23.25;;
24891;SDS011;12954;50.688;10.908;2023-01-23T07:33:34;303.85;;;18.48;;
24891;SDS011;12954;50.688;10.908;2023-01-23T07:36:03;404.52;;;23.02;;
24891;SDS011;12954;50.688;10.908;2023-01-23T07:38:32;429.25;;;22.80;;
24891;SDS011;12954;50.688;10.908;2023-01-23T07:41:01;276.00;;;17.55;;
24891;SDS011;12954;50.688;10.908;2023-01-23T07:43:29;219.77;;;16.67;;
24891;SDS011;12954;50.688;10.908;2023-01-23T07:45:59;291.90;;;18.13;;
24891;SDS011;12954;50.688;10.908;2023-01-23T07:48:28;296.50;;;18.40;;
24891;SDS011;12954;50.688;10.908;2023-01-23T07:50:56;383.00;;;21.38;;
24891;SDS011;12954;50.688;10.908;2023-01-23T07:53:29;385.77;;;20.70;;
24891;SDS011;12954;50.688;10.908;2023-01-23T07:55:57;265.83;;;17.42;;
24891;SDS011;12954;50.688;10.908;2023-01-23T07:58:27;378.23;;;20.55;;
24891;SDS011;12954;50.688;10.908;2023-01-23T08:00:56;227.13;;;16.88;;
24891;SDS011;12954;50.688;10.908;2023-01-23T08:03:25;405.42;;;22.25;;
24891;SDS011;12954;50.688;10.908;2023-01-23T08:05:55;264.65;;;19.13;;
24891;SDS011;12954;50.688;10.908;2023-01-23T08:08:25;483.65;;;25.58;;
24891;SDS011;12954;50.688;10.908;2023-01-23T08:10:53;382.45;;;21.55;;
24891;SDS011;12954;50.688;10.908;2023-01-23T08:13:21;338.23;;;21.38;;
24891;SDS011;12954;50.688;10.908;2023-01-23T08:15:50;382.23;;;22.80;;
24891;SDS011;12954;50.688;10.908;2023-01-23T08:18:18;339.50;;;19.90;;
24891;SDS011;12954;50.688;10.908;2023-01-23T08:20:52;421.63;;;23.77;;
24891;SDS011;12954;50.688;10.908;2023-01-23T08:23:23;319.23;;;21.55;;
24891;SDS011;12954;50.688;10.908;2023-01-23T08:25:52;453.38;;;24.27;;
24891;SDS011;12954;50.688;10.908;2023-01-23T08:28:20;295.77;;;20.05;;
24891;SDS011;12954;50.688;10.908;2023-01-23T08:30:50;265.80;;;17.40;;
24891;SDS011;12954;50.688;10.908;2023-01-23T08:33:19;278.50;;;19.23;;
24891;SDS011;12954;50.688;10.908;2023-01-23T08:35:48;284.42;;;20.27;;
24891;SDS011;12954;50.688;10.908;2023-01-23T08:38:19;225.55;;;17.60;;
24891;SDS011;12954;50.688;10.908;2023-01-23T08:40:48;178.82;;;16.00;;
24891;SDS011;12954;50.688;10.908;2023-01-23T08:43:18;314.95;;;21.63;;
24891;SDS011;12954;50.688;10.908;2023-01-23T08:45:47;336.02;;;23.48;;
24891;SDS011;12954;50.688;10.908;2023-01-23T08:48:16;244.60;;;16.35;;
24891;SDS011;12954;50.688;10.908;2023-01-23T08:50:45;128.68;;;14.90;;
24891;SDS011;12954;50.688;10.908;2023-01-23T08:53:14;229.05;;;17.92;;
24891;SDS011;12954;50.688;10.908;2023-01-23T08:55:44;237.27;;;18.13;;
24891;SDS011;12954;50.688;10.908;2023-01-23T08:58:12;310.42;;;20.73;;
24891;SDS011;12954;50.688;10.908;2023-01-23T09:00:41;190.73;;;16.45;;
24891;SDS011;12954;50.688;10.908;2023-01-23T09:03:09;158.57;;;16.02;;
24891;SDS011;12954;50.688;10.908;2023-01-23T09:05:37;205.63;;;17.20;;
24891;SDS011;12954;50.688;10.908;2023-01-23T09:08:06;160.05;;;15.82;;
24891;SDS011;12954;50.688;10.908;2023-01-23T09:10:34;206.07;;;18.33;;
24891;SDS011;12954;50.688;10.908;2023-01-23T09:13:04;268.27;;;19.00;;
24891;SDS011;12954;50.688;10.908;2023-01-23T09:15:33;375.60;;;21.77;;
24891;SDS011;12954;50.688;10.908;2023-01-23T09:18:02;321.80;;;23.52;;
24891;SDS011;12954;50.688;10.908;2023-01-23T09:20:30;277.33;;;17.83;;
24891;SDS011;12954;50.688;10.908;2023-01-23T09:22:58;254.80;;;19.40;;
24891;SDS011;12954;50.688;10.908;2023-01-23T09:25:27;291.23;;;21.83;;
24891;SDS011;12954;50.688;10.908;2023-01-23T09:27:56;256.15;;;18.38;;
24891;SDS011;12954;50.688;10.908;2023-01-23T09:30:26;197.98;;;18.38;;
24891;SDS011;12954;50.688;10.908;2023-01-23T09:32:55;237.68;;;18.63;;
24891;SDS011;12954;50.688;10.908;2023-01-23T09:35:23;233.45;;;17.13;;
24891;SDS011;12954;50.688;10.908;2023-01-23T09:37:51;260.58;;;20.92;;
24891;SDS011;12954;50.688;10.908;2023-01-23T09:40:33;313.65;;;23.25;;
24891;SDS011;12954;50.688;10.908;2023-01-23T09:43:07;293.38;;;20.83;;
24891;SDS011;12954;50.688;10.908;2023-01-23T09:45:42;259.55;;;20.10;;
24891;SDS011;12954;50.688;10.908;2023-01-23T09:48:15;175.10;;;15.30;;
24891;SDS011;12954;50.688;10.908;2023-01-23T09:50:51;127.05;;;14.93;;
24891;SDS011;12954;50.688;10.908;2023-01-23T09:53:24;89.30;;;14.75;;
24891;SDS011;12954;50.688;10.908;2023-01-23T09:55:58;104.57;;;13.75;;
24891;SDS011;12954;50.688;10.908;2023-01-23T09:58:30;183.20;;;18.65;;
24891;SDS011;12954;50.688;10.908;2023-01-23T10:01:07;119.78;;;15.23;;
24891;SDS011;12954;50.688;10.908;2023-01-23T10:03:38;164.18;;;17.73;;
24891;SDS011;12954;50.688;10.908;2023-01-23T10:06:11;126.88;;;15.18;;
24891;SDS011;12954;50.688;10.908;2023-01-23T10:08:55;175.60;;;16.92;;
24891;SDS011;12954;50.688;10.908;2023-01-23T10:11:50;266.90;;;19.00;;
24891;SDS011;12954;50.688;10.908;2023-01-23T10:14:34;248.90;;;18.15;;
24891;SDS011;12954;50.688;10.908;2023-01-23T10:17:20;145.20;;;14.13;;
24891;SDS011;12954;50.688;10.908;2023-01-23T10:20:04;308.90;;;22.17;;
24891;SDS011;12954;50.688;10.908;2023-01-23T10:22:46;133.18;;;14.52;;
24891;SDS011;12954;50.688;10.908;2023-01-23T10:27:49;218.93;;;19.73;;
24891;SDS011;12954;50.688;10.908;2023-01-23T10:30:23;150.02;;;15.57;;
24891;SDS011;12954;50.688;10.908;2023-01-23T10:32:57;50.03;;;12.30;;
24891;SDS011;12954;50.688;10.908;2023-01-23T10:35:30;178.00;;;18.33;;
24891;SDS011;12954;50.688;10.908;2023-01-23T10:38:05;127.95;;;16.83;;
24891;SDS011;12954;50.688;10.908;2023-01-23T10:40:52;77.80;;;14.02;;
24891;SDS011;12954;50.688;10.908;2023-01-23T10:43:37;107.63;;;14.60;;
24891;SDS011;12954;50.688;10.908;2023-01-23T10:46:08;109.60;;;14.43;;
24891;SDS011;12954;50.688;10.908;2023-01-23T10:48:44;92.45;;;13.95;;
24891;SDS011;12954;50.688;10.908;2023-01-23T10:51:24;68.60;;;13.23;;
24891;SDS011;12954;50.688;10.908;2023-01-23T10:54:09;378.58;;;23.58;;
24891;SDS011;12954;50.688;10.908;2023-01-23T10:56:56;297.77;;;22.88;;
24891;SDS011;12954;50.688;10.908;2023-01-23T10:59:28;430.00;;;25.75;;
24891;SDS011;12954;50.688;10.908;2023-01-23T11:02:15;189.80;;;16.20;;
24891;SDS011;12954;50.688;10.908;2023-01-23T11:04:48;296.42;;;19.15;;
24891;SDS011;12954;50.688;10.908;2023-01-23T11:07:20;526.22;;;27.38;;
24891;SDS011;12954;50.688;10.908;2023-01-23T11:09:51;227.80;;;18.58;;
24891;SDS011;12954;50.688;10.908;2023-01-23T11:12:22;535.90;;;28.55;;
24891;SDS011;12954;50.688;10.908;2023-01-23T11:17:38;306.40;;;20.10;;
24891;SDS011;12954;50.688;10.908;2023-01-23T11:20:19;195.00;;;27.05;;
24891;SDS011;12954;50.688;10.908;2023-01-23T11:25:43;297.70;;;19.70;;
24891;SDS011;12954;50.688;10.908;2023-01-23T11:28:17;251.13;;;18.17;;
24891;SDS011;12954;50.688;10.908;2023-01-23T11:30:49;247.88;;;19.38;;
24891;SDS011;12954;50.688;10.908;2023-01-23T11:33:39;209.02;;;16.38;;
24891;SDS011;12954;50.688;10.908;2023-01-23T11:36:26;226.85;;;17.83;;
24891;SDS011;12954;50.688;10.908;2023-01-23T11:39:04;399.55;;;24.77;;
24891;SDS011;12954;50.688;10.908;2023-01-23T11:41:43;296.30;;;19.75;;
24891;SDS011;12954;50.688;10.908;2023-01-23T11:44:14;219.40;;;17.90;;
24891;SDS011;12954;50.688;10.908;2023-01-23T11:49:52;147.55;;;15.27;;
24891;SDS011;12954;50.688;10.908;2023-01-23T11:52:38;40.63;;;12.30;;
24891;SDS011;12954;50.688;10.908;2023-01-23T11:58:25;118.97;;;15.73;;
24891;SDS011;12954;50.688;10.908;2023-01-23T12:01:16;65.50;;;13.95;;
24891;SDS011;12954;50.688;10.908;2023-01-23T12:04:02;137.20;;;17.73;;
24891;SDS011;12954;50.688;10.908;2023-01-23T12:06:57;96.55;;;14.98;;
24891;SDS011;12954;50.688;10.908;2023-01-23T12:09:38;197.00;;;20.08;;
24891;SDS011;12954;50.688;10.908;2023-01-23T12:12:15;94.95;;;14.75;;
24891;SDS011;12954;50.688;10.908;2023-01-23T12:14:53;114.97;;;15.57;;
24891;SDS011;12954;50.688;10.908;2023-01-23T12:17:29;227.70;;;17.98;;
24891;SDS011;12954;50.688;10.908;2023-01-23T12:20:16;193.63;;;18.17;;
24891;SDS011;12954;50.688;10.908;2023-01-23T12:25:59;240.30;;;19.55;;
24891;SDS011;12954;50.688;10.908;2023-01-23T12:28:45;165.45;;;17.23;;
24891;SDS011;12954;50.688;10.908;2023-01-23T12:31:44;69.63;;;13.25;;
24891;SDS011;12954;50.688;10.908;2023-01-23T12:34:26;81.50;;;14.30;;
24891;SDS011;12954;50.688;10.908;2023-01-23T12:37:19;99.07;;;15.02;;
24891;SDS011;12954;50.688;10.908;2023-01-23T12:39:59;44.75;;;13.63;;
24891;SDS011;12954;50.688;10.908;2023-01-23T12:42:37;52.45;;;12.73;;
24891;SDS011;12954;50.688;10.908;2023-01-23T12:45:16;40.67;;;12.73;;
24891;SDS011;12954;50.688;10.908;2023-01-23T12:47:50;65.93;;;13.45;;
24891;SDS011;12954;50.688;10.908;2023-01-23T12:50:28;50.28;;;13.02;;
24891;SDS011;12954;50.688;10.908;2023-01-23T12:53:05;57.45;;;12.55;;
24891;SDS011;12954;50.688;10.908;2023-01-23T12:55:37;61.22;;;12.93;;
24891;SDS011;12954;50.688;10.908;2023-01-23T12:58:14;49.53;;;14.77;;
24891;SDS011;12954;50.688;10.908;2023-01-23T13:00:48;37.38;;;13.73;;
24891;SDS011;12954;50.688;10.908;2023-01-23T13:03:34;27.67;;;13.13;;
24891;SDS011;12954;50.688;10.908;2023-01-23T13:06:18;22.10;;;11.45;;
24891;SDS011;12954;50.688;10.908;2023-01-23T13:09:06;27.20;;;11.52;;
24891;SDS011;12954;50.688;10.908;2023-01-23T13:11:46;23.02;;;12.13;;
24891;SDS011;12954;50.688;10.908;2023-01-23T13:14:35;17.75;;;12.38;;
24891;SDS011;12954;50.688;10.908;2023-01-23T13:17:30;20.67;;;11.48;;
24891;SDS011;12954;50.688;10.908;2023-01-23T13:20:22;15.30;;;10.93;;
24891;SDS011;12954;50.688;10.908;2023-01-23T13:23:26;16.73;;;11.43;;
24891;SDS011;12954;50.688;10.908;2023-01-23T13:28:58;17.38;;;10.57;;
24891;SDS011;12954;50.688;10.908;2023-01-23T13:31:41;21.38;;;13.77;;
24891;SDS011;12954;50.688;10.908;2023-01-23T13:34:34;17.52;;;11.00;;
24891;SDS011;12954;50.688;10.908;2023-01-23T13:40:19;24.15;;;15.40;;
24891;SDS011;12954;50.688;10.908;2023-01-23T13:42:49;14.95;;;10.38;;
24891;SDS011;12954;50.688;10.908;2023-01-23T13:45:30;15.98;;;11.50;;
24891;SDS011;12954;50.688;10.908;2023-01-23T13:48:04;16.63;;;10.77;;
24891;SDS011;12954;50.688;10.908;2023-01-23T13:51:19;15.80;;;10.45;;
24891;SDS011;12954;50.688;10.908;2023-01-23T13:54:08;18.48;;;11.68;;
24891;SDS011;12954;50.688;10.908;2023-01-23T13:57:11;17.13;;;12.32;;
24891;SDS011;12954;50.688;10.908;2023-01-23T13:59:56;18.48;;;11.63;;
24891;SDS011;12954;50.688;10.908;2023-01-23T14:02:42;19.08;;;12.80;;
24891;SDS011;12954;50.688;10.908;2023-01-23T14:06:02;20.90;;;12.85;;
24891;SDS011;12954;50.688;10.908;2023-01-23T14:08:47;21.80;;;13.82;;
24891;SDS011;12954;50.688;10.908;2023-01-23T14:11:33;21.00;;;12.50;;
24891;SDS011;12954;50.688;10.908;2023-01-23T14:14:17;35.00;;;14.10;;
24891;SDS011;12954;50.688;10.908;2023-01-23T14:17:17;24.85;;;13.73;;
24891;SDS011;12954;50.688;10.908;2023-01-23T14:20:00;109.70;;;16.40;;
24891;SDS011;12954;50.688;10.908;2023-01-23T14:22:48;120.22;;;16.48;;
24891;SDS011;12954;50.688;10.908;2023-01-23T14:25:21;236.57;;;20.58;;
24891;SDS011;12954;50.688;10.908;2023-01-23T14:28:00;368.55;;;24.60;;
24891;SDS011;12954;50.688;10.908;2023-01-23T14:30:30;301.52;;;22.48;;
24891;SDS011;12954;50.688;10.908;2023-01-23T14:32:58;277.83;;;21.23;;
24891;SDS011;12954;50.688;10.908;2023-01-23T14:35:27;130.43;;;16.25;;
24891;SDS011;12954;50.688;10.908;2023-01-23T14:37:59;139.68;;;17.48;;
24891;SDS011;12954;50.688;10.908;2023-01-23T14:40:31;261.23;;;22.08;;
24891;SDS011;12954;50.688;10.908;2023-01-23T14:43:16;264.30;;;20.85;;
24891;SDS011;12954;50.688;10.908;2023-01-23T14:45:48;243.32;;;18.80;;
24891;SDS011;12954;50.688;10.908;2023-01-23T14:48:22;341.15;;;24.30;;
24891;SDS011;12954;50.688;10.908;2023-01-23T14:50:59;115.82;;;17.17;;
24891;SDS011;12954;50.688;10.908;2023-01-23T14:53:31;351.33;;;24.25;;
24891;SDS011;12954;50.688;10.908;2023-01-23T14:55:59;446.88;;;28.20;;
24891;SDS011;12954;50.688;10.908;2023-01-23T14:58:28;259.95;;;20.00;;
24891;SDS011;12954;50.688;10.908;2023-01-23T15:00:57;198.90;;;19.27;;
24891;SDS011;12954;50.688;10.908;2023-01-23T15:03:35;216.52;;;20.05;;
24891;SDS011;12954;50.688;10.908;2023-01-23T15:06:06;300.10;;;22.75;;